sensor_id;sensor_type;location;lat;lon;timestamp;temperature;humidity
41630;DHT22;27322;49.488;8.480;2023-06-24T00:01:14;21.20;95.90
41630;DHT22;27322;49.488;8.480;2023-06-24T00:03:40;21.20;96.30
41630;DHT22;27322;49.488;8.480;2023-06-24T00:06:06;21.10;96.40
41630;DHT22;27322;49.488;8.480;2023-06-24T00:08:32;21.10;96.60
41630;DHT22;27322;49.488;8.480;2023-06-24T00:11:02;21.10;96.70
41630;DHT22;27322;49.488;8.480;2023-06-24T00:13:28;21.00;96.90
41630;DHT22;27322;49.488;8.480;2023-06-24T00:15:54;21.00;97.10
41630;DHT22;27322;49.488;8.480;2023-06-24T00:18:20;21.00;97.20
41630;DHT22;27322;49.488;8.480;2023-06-24T00:20:45;21.00;97.30
41630;DHT22;27322;49.488;8.480;2023-06-24T00:23:13;20.90;97.60
41630;DHT22;27322;49.488;8.480;2023-06-24T00:25:41;20.90;97.50
41630;DHT22;27322;49.488;8.480;2023-06-24T00:28:08;20.90;97.70
41630;DHT22;27322;49.488;8.480;2023-06-24T00:30:33;20.90;97.80
41630;DHT22;27322;49.488;8.480;2023-06-24T00:32:59;20.90;97.70
41630;DHT22;27322;49.488;8.480;2023-06-24T00:35:24;20.80;97.80
41630;DHT22;27322;49.488;8.480;2023-06-24T00:37:50;20.80;98.00
41630;DHT22;27322;49.488;8.480;2023-06-24T00:40:16;20.80;98.00
41630;DHT22;27322;49.488;8.480;2023-06-24T00:42:44;20.80;98.10
41630;DHT22;27322;49.488;8.480;2023-06-24T00:45:11;20.80;98.20
41630;DHT22;27322;49.488;8.480;2023-06-24T00:47:36;20.80;98.30
41630;DHT22;27322;49.488;8.480;2023-06-24T00:50:02;20.80;98.50
41630;DHT22;27322;49.488;8.480;2023-06-24T00:52:28;20.70;98.50
41630;DHT22;27322;49.488;8.480;2023-06-24T00:54:53;20.70;98.70
41630;DHT22;27322;49.488;8.480;2023-06-24T00:57:21;20.70;98.80
41630;DHT22;27322;49.488;8.480;2023-06-24T00:59:51;20.70;99.10
41630;DHT22;27322;49.488;8.480;2023-06-24T01:02:20;20.60;99.20
41630;DHT22;27322;49.488;8.480;2023-06-24T01:04:47;20.70;99.40
41630;DHT22;27322;49.488;8.480;2023-06-24T01:07:14;20.60;99.40
41630;DHT22;27322;49.488;8.480;2023-06-24T01:09:40;20.70;99.40
41630;DHT22;27322;49.488;8.480;2023-06-24T01:12:06;20.60;99.40
41630;DHT22;27322;49.488;8.480;2023-06-24T01:14:33;20.60;99.40
41630;DHT22;27322;49.488;8.480;2023-06-24T01:17:12;20.60;99.30
41630;DHT22;27322;49.488;8.480;2023-06-24T01:33:42;20.50;99.90
41630;DHT22;27322;49.488;8.480;2023-06-24T01:36:11;20.40;99.90
41630;DHT22;27322;49.488;8.480;2023-06-24T01:38:43;20.40;99.90
41630;DHT22;27322;49.488;8.480;2023-06-24T01:41:14;20.40;99.90
41630;DHT22;27322;49.488;8.480;2023-06-24T01:43:42;20.40;99.90
41630;DHT22;27322;49.488;8.480;2023-06-24T01:46:10;20.40;99.90
41630;DHT22;27322;49.488;8.480;2023-06-24T01:48:39;20.30;99.90
41630;DHT22;27322;49.488;8.480;2023-06-24T01:51:08;20.30;99.90
41630;DHT22;27322;49.488;8.480;2023-06-24T01:53:37;20.20;99.90
41630;DHT22;27322;49.488;8.480;2023-06-24T01:56:06;20.20;99.90
41630;DHT22;27322;49.488;8.480;2023-06-24T01:58:34;20.10;99.90
41630;DHT22;27322;49.488;8.480;2023-06-24T02:01:02;20.10;99.90
41630;DHT22;27322;49.488;8.480;2023-06-24T02:03:28;20.10;99.90
41630;DHT22;27322;49.488;8.480;2023-06-24T02:05:56;20.10;99.90
41630;DHT22;27322;49.488;8.480;2023-06-24T02:08:24;20.10;99.90
41630;DHT22;27322;49.488;8.480;2023-06-24T02:10:51;20.10;99.90
41630;DHT22;27322;49.488;8.480;2023-06-24T02:13:18;20.00;99.90
41630;DHT22;27322;49.488;8.480;2023-06-24T02:15:45;20.00;99.90
41630;DHT22;27322;49.488;8.480;2023-06-24T02:18:13;19.90;99.90
41630;DHT22;27322;49.488;8.480;2023-06-24T02:20:42;19.90;99.90
41630;DHT22;27322;49.488;8.480;2023-06-24T02:23:10;19.90;99.90
41630;DHT22;27322;49.488;8.480;2023-06-24T02:25:36;19.90;99.90
41630;DHT22;27322;49.488;8.480;2023-06-24T02:28:06;19.80;99.90
41630;DHT22;27322;49.488;8.480;2023-06-24T02:30:34;19.80;99.90
41630;DHT22;27322;49.488;8.480;2023-06-24T02:33:00;19.80;99.90
41630;DHT22;27322;49.488;8.480;2023-06-24T02:35:25;19.80;99.90
41630;DHT22;27322;49.488;8.480;2023-06-24T02:37:51;19.80;99.90
41630;DHT22;27322;49.488;8.480;2023-06-24T02:40:16;19.80;99.90
41630;DHT22;27322;49.488;8.480;2023-06-24T02:42:42;19.70;99.90
41630;DHT22;27322;49.488;8.480;2023-06-24T02:45:08;19.70;99.90
41630;DHT22;27322;49.488;8.480;2023-06-24T02:47:35;19.70;99.90
41630;DHT22;27322;49.488;8.480;2023-06-24T02:50:03;19.70;99.90
41630;DHT22;27322;49.488;8.480;2023-06-24T02:52:30;19.60;99.90
41630;DHT22;27322;49.488;8.480;2023-06-24T02:54:57;19.60;99.90
41630;DHT22;27322;49.488;8.480;2023-06-24T02:57:25;19.60;99.90
41630;DHT22;27322;49.488;8.480;2023-06-24T02:59:51;19.60;99.90
41630;DHT22;27322;49.488;8.480;2023-06-24T03:02:17;19.80;99.90
41630;DHT22;27322;49.488;8.480;2023-06-24T03:04:42;19.90;99.90
41630;DHT22;27322;49.488;8.480;2023-06-24T03:07:09;20.20;99.90
41630;DHT22;27322;49.488;8.480;2023-06-24T03:09:36;20.50;99.90
41630;DHT22;27322;49.488;8.480;2023-06-24T03:12:02;20.70;99.90
41630;DHT22;27322;49.488;8.480;2023-06-24T03:14:27;20.80;99.90
41630;DHT22;27322;49.488;8.480;2023-06-24T03:16:53;20.70;99.90
41630;DHT22;27322;49.488;8.480;2023-06-24T03:19:18;20.80;99.90
41630;DHT22;27322;49.488;8.480;2023-06-24T03:21:44;20.80;99.90
41630;DHT22;27322;49.488;8.480;2023-06-24T03:24:10;20.80;99.90
41630;DHT22;27322;49.488;8.480;2023-06-24T03:26:38;20.90;99.90
41630;DHT22;27322;49.488;8.480;2023-06-24T03:29:04;21.10;99.90
41630;DHT22;27322;49.488;8.480;2023-06-24T03:31:30;21.10;99.90
41630;DHT22;27322;49.488;8.480;2023-06-24T03:33:56;21.00;99.90
41630;DHT22;27322;49.488;8.480;2023-06-24T03:36:21;20.90;99.90
41630;DHT22;27322;49.488;8.480;2023-06-24T03:38:47;20.90;99.90
41630;DHT22;27322;49.488;8.480;2023-06-24T03:41:13;20.80;99.90
41630;DHT22;27322;49.488;8.480;2023-06-24T03:43:39;20.70;99.90
41630;DHT22;27322;49.488;8.480;2023-06-24T03:46:05;20.60;99.90
41630;DHT22;27322;49.488;8.480;2023-06-24T03:48:30;20.50;99.90
41630;DHT22;27322;49.488;8.480;2023-06-24T03:50:56;20.40;99.90
41630;DHT22;27322;49.488;8.480;2023-06-24T03:53:21;20.40;99.90
41630;DHT22;27322;49.488;8.480;2023-06-24T03:55:47;20.40;99.90
41630;DHT22;27322;49.488;8.480;2023-06-24T03:58:13;20.30;99.90
41630;DHT22;27322;49.488;8.480;2023-06-24T04:00:39;20.40;99.90
41630;DHT22;27322;49.488;8.480;2023-06-24T04:03:08;20.30;99.90
41630;DHT22;27322;49.488;8.480;2023-06-24T04:05:34;20.30;99.90
41630;DHT22;27322;49.488;8.480;2023-06-24T04:07:59;20.30;99.90
41630;DHT22;27322;49.488;8.480;2023-06-24T04:10:25;20.30;99.90
41630;DHT22;27322;49.488;8.480;2023-06-24T04:12:51;20.20;99.90
41630;DHT22;27322;49.488;8.480;2023-06-24T04:15:16;20.20;99.90
41630;DHT22;27322;49.488;8.480;2023-06-24T04:17:42;20.10;99.90
41630;DHT22;27322;49.488;8.480;2023-06-24T04:20:08;20.10;99.90
41630;DHT22;27322;49.488;8.480;2023-06-24T04:22:39;20.10;99.90
41630;DHT22;27322;49.488;8.480;2023-06-24T04:25:05;20.10;99.90
41630;DHT22;27322;49.488;8.480;2023-06-24T04:27:32;20.10;99.90
41630;DHT22;27322;49.488;8.480;2023-06-24T04:29:59;20.10;99.90
41630;DHT22;27322;49.488;8.480;2023-06-24T04:32:24;20.10;99.90
41630;DHT22;27322;49.488;8.480;2023-06-24T04:34:50;20.10;99.90
41630;DHT22;27322;49.488;8.480;2023-06-24T04:37:15;20.20;99.90
41630;DHT22;27322;49.488;8.480;2023-06-24T04:39:43;20.20;99.90
41630;DHT22;27322;49.488;8.480;2023-06-24T04:42:09;20.20;99.90
41630;DHT22;27322;49.488;8.480;2023-06-24T04:44:36;20.20;99.90
41630;DHT22;27322;49.488;8.480;2023-06-24T04:47:02;20.20;99.90
41630;DHT22;27322;49.488;8.480;2023-06-24T04:49:27;20.30;99.90
41630;DHT22;27322;49.488;8.480;2023-06-24T04:51:53;20.50;99.90
41630;DHT22;27322;49.488;8.480;2023-06-24T04:54:18;20.70;99.90
41630;DHT22;27322;49.488;8.480;2023-06-24T04:56:44;20.80;99.90
41630;DHT22;27322;49.488;8.480;2023-06-24T04:59:10;20.80;99.90
41630;DHT22;27322;49.488;8.480;2023-06-24T05:01:37;20.70;99.90
41630;DHT22;27322;49.488;8.480;2023-06-24T05:04:03;20.70;99.90
41630;DHT22;27322;49.488;8.480;2023-06-24T05:06:28;20.60;99.90
41630;DHT22;27322;49.488;8.480;2023-06-24T05:08:54;20.60;99.90
41630;DHT22;27322;49.488;8.480;2023-06-24T05:11:19;20.70;99.90
41630;DHT22;27322;49.488;8.480;2023-06-24T05:13:45;20.70;99.90
41630;DHT22;27322;49.488;8.480;2023-06-24T05:16:10;20.70;99.90
41630;DHT22;27322;49.488;8.480;2023-06-24T05:18:36;20.70;99.90
41630;DHT22;27322;49.488;8.480;2023-06-24T05:21:01;20.70;99.90
41630;DHT22;27322;49.488;8.480;2023-06-24T05:23:27;20.70;99.90
41630;DHT22;27322;49.488;8.480;2023-06-24T05:25:52;20.70;99.90
41630;DHT22;27322;49.488;8.480;2023-06-24T05:28:18;20.80;99.90
41630;DHT22;27322;49.488;8.480;2023-06-24T05:30:45;20.80;99.90
41630;DHT22;27322;49.488;8.480;2023-06-24T05:33:11;20.70;99.90
41630;DHT22;27322;49.488;8.480;2023-06-24T05:35:37;20.70;99.90
41630;DHT22;27322;49.488;8.480;2023-06-24T05:38:07;20.70;99.90
41630;DHT22;27322;49.488;8.480;2023-06-24T05:40:32;20.70;99.90
41630;DHT22;27322;49.488;8.480;2023-06-24T05:42:58;20.80;99.90
41630;DHT22;27322;49.488;8.480;2023-06-24T05:45:24;20.80;99.90
41630;DHT22;27322;49.488;8.480;2023-06-24T05:47:49;20.80;99.90
41630;DHT22;27322;49.488;8.480;2023-06-24T05:50:15;20.80;99.90
41630;DHT22;27322;49.488;8.480;2023-06-24T05:52:41;20.90;99.90
41630;DHT22;27322;49.488;8.480;2023-06-24T05:55:07;20.80;99.90
41630;DHT22;27322;49.488;8.480;2023-06-24T05:57:33;20.90;99.90
41630;DHT22;27322;49.488;8.480;2023-06-24T05:59:58;20.90;99.90
41630;DHT22;27322;49.488;8.480;2023-06-24T06:02:24;20.90;99.90
41630;DHT22;27322;49.488;8.480;2023-06-24T06:04:50;20.90;99.90
41630;DHT22;27322;49.488;8.480;2023-06-24T06:07:15;21.00;99.90
41630;DHT22;27322;49.488;8.480;2023-06-24T06:09:41;21.00;99.90
41630;DHT22;27322;49.488;8.480;2023-06-24T06:12:07;20.90;99.90
41630;DHT22;27322;49.488;8.480;2023-06-24T06:14:33;21.00;99.90
41630;DHT22;27322;49.488;8.480;2023-06-24T06:16:59;21.00;99.90
41630;DHT22;27322;49.488;8.480;2023-06-24T06:19:24;21.10;99.90
41630;DHT22;27322;49.488;8.480;2023-06-24T06:21:51;21.10;99.90
41630;DHT22;27322;49.488;8.480;2023-06-24T06:24:17;21.10;99.90
41630;DHT22;27322;49.488;8.480;2023-06-24T06:26:43;21.10;99.90
41630;DHT22;27322;49.488;8.480;2023-06-24T06:29:10;21.10;99.90
41630;DHT22;27322;49.488;8.480;2023-06-24T06:31:35;21.20;99.90
41630;DHT22;27322;49.488;8.480;2023-06-24T06:34:01;21.20;99.90
41630;DHT22;27322;49.488;8.480;2023-06-24T06:36:27;21.30;99.90
41630;DHT22;27322;49.488;8.480;2023-06-24T06:38:53;21.30;99.90
41630;DHT22;27322;49.488;8.480;2023-06-24T06:41:18;21.40;99.90
41630;DHT22;27322;49.488;8.480;2023-06-24T06:43:52;21.40;99.90
41630;DHT22;27322;49.488;8.480;2023-06-24T06:46:18;21.50;99.90
41630;DHT22;27322;49.488;8.480;2023-06-24T06:48:44;21.50;99.90
41630;DHT22;27322;49.488;8.480;2023-06-24T06:51:09;21.50;99.90
41630;DHT22;27322;49.488;8.480;2023-06-24T06:53:35;21.50;99.90
41630;DHT22;27322;49.488;8.480;2023-06-24T06:56:01;21.60;99.90
41630;DHT22;27322;49.488;8.480;2023-06-24T06:58:27;21.70;99.90
41630;DHT22;27322;49.488;8.480;2023-06-24T07:00:53;21.80;99.90
41630;DHT22;27322;49.488;8.480;2023-06-24T07:03:18;21.90;99.90
41630;DHT22;27322;49.488;8.480;2023-06-24T07:05:44;21.90;99.90
41630;DHT22;27322;49.488;8.480;2023-06-24T07:08:10;22.00;99.90
41630;DHT22;27322;49.488;8.480;2023-06-24T07:10:35;22.00;99.90
41630;DHT22;27322;49.488;8.480;2023-06-24T07:13:01;22.10;99.90
41630;DHT22;27322;49.488;8.480;2023-06-24T07:15:27;22.10;99.90
41630;DHT22;27322;49.488;8.480;2023-06-24T07:17:53;22.20;99.90
41630;DHT22;27322;49.488;8.480;2023-06-24T07:20:20;22.30;99.90
41630;DHT22;27322;49.488;8.480;2023-06-24T07:22:45;22.40;99.90
41630;DHT22;27322;49.488;8.480;2023-06-24T07:25:11;22.50;99.90
41630;DHT22;27322;49.488;8.480;2023-06-24T07:27:37;22.50;99.50
41630;DHT22;27322;49.488;8.480;2023-06-24T07:30:04;22.50;99.80
41630;DHT22;27322;49.488;8.480;2023-06-24T07:32:30;22.50;99.90
41630;DHT22;27322;49.488;8.480;2023-06-24T07:34:56;22.50;99.90
41630;DHT22;27322;49.488;8.480;2023-06-24T07:37:22;22.50;99.90
41630;DHT22;27322;49.488;8.480;2023-06-24T07:39:47;22.50;99.90
41630;DHT22;27322;49.488;8.480;2023-06-24T07:42:13;22.60;99.90
41630;DHT22;27322;49.488;8.480;2023-06-24T07:44:47;22.60;99.70
41630;DHT22;27322;49.488;8.480;2023-06-24T07:47:13;22.70;99.70
41630;DHT22;27322;49.488;8.480;2023-06-24T07:49:39;22.80;99.70
41630;DHT22;27322;49.488;8.480;2023-06-24T07:52:04;22.80;99.60
41630;DHT22;27322;49.488;8.480;2023-06-24T07:54:31;22.90;99.60
41630;DHT22;27322;49.488;8.480;2023-06-24T07:56:57;23.00;99.30
41630;DHT22;27322;49.488;8.480;2023-06-24T07:59:22;23.00;99.30
41630;DHT22;27322;49.488;8.480;2023-06-24T08:01:48;23.10;99.40
41630;DHT22;27322;49.488;8.480;2023-06-24T08:04:14;23.20;99.20
41630;DHT22;27322;49.488;8.480;2023-06-24T08:06:41;23.30;98.20
41630;DHT22;27322;49.488;8.480;2023-06-24T08:09:06;23.40;97.20
41630;DHT22;27322;49.488;8.480;2023-06-24T08:11:32;23.40;97.50
41630;DHT22;27322;49.488;8.480;2023-06-24T08:13:58;23.50;97.50
41630;DHT22;27322;49.488;8.480;2023-06-24T08:16:24;23.50;97.30
41630;DHT22;27322;49.488;8.480;2023-06-24T08:18:49;23.60;97.30
41630;DHT22;27322;49.488;8.480;2023-06-24T08:21:15;23.60;96.80
41630;DHT22;27322;49.488;8.480;2023-06-24T08:23:40;23.70;97.20
41630;DHT22;27322;49.488;8.480;2023-06-24T08:26:06;23.70;97.20
41630;DHT22;27322;49.488;8.480;2023-06-24T08:28:33;23.80;96.40
41630;DHT22;27322;49.488;8.480;2023-06-24T08:30:58;23.80;96.30
41630;DHT22;27322;49.488;8.480;2023-06-24T08:33:24;23.90;95.50
41630;DHT22;27322;49.488;8.480;2023-06-24T08:35:49;23.90;96.00
41630;DHT22;27322;49.488;8.480;2023-06-24T08:38:15;24.00;96.20
41630;DHT22;27322;49.488;8.480;2023-06-24T08:40:41;24.00;95.50
41630;DHT22;27322;49.488;8.480;2023-06-24T08:43:09;24.00;95.30
41630;DHT22;27322;49.488;8.480;2023-06-24T08:45:34;24.00;95.90
41630;DHT22;27322;49.488;8.480;2023-06-24T08:48:00;24.10;96.10
41630;DHT22;27322;49.488;8.480;2023-06-24T08:50:31;24.20;95.40
41630;DHT22;27322;49.488;8.480;2023-06-24T08:52:59;24.20;94.90
41630;DHT22;27322;49.488;8.480;2023-06-24T08:55:28;24.30;94.30
41630;DHT22;27322;49.488;8.480;2023-06-24T08:57:56;24.30;94.60
41630;DHT22;27322;49.488;8.480;2023-06-24T09:00:22;24.40;94.90
41630;DHT22;27322;49.488;8.480;2023-06-24T09:02:47;24.40;95.10
41630;DHT22;27322;49.488;8.480;2023-06-24T09:05:13;24.40;94.40
41630;DHT22;27322;49.488;8.480;2023-06-24T09:07:38;24.50;93.40
41630;DHT22;27322;49.488;8.480;2023-06-24T09:10:04;24.50;93.40
41630;DHT22;27322;49.488;8.480;2023-06-24T09:12:34;24.50;93.50
41630;DHT22;27322;49.488;8.480;2023-06-24T09:15:00;24.60;92.90
41630;DHT22;27322;49.488;8.480;2023-06-24T09:17:25;24.60;92.40
41630;DHT22;27322;49.488;8.480;2023-06-24T09:19:51;24.70;92.70
41630;DHT22;27322;49.488;8.480;2023-06-24T09:22:17;24.80;91.70
41630;DHT22;27322;49.488;8.480;2023-06-24T09:24:45;24.80;91.90
41630;DHT22;27322;49.488;8.480;2023-06-24T09:27:17;24.80;91.30
41630;DHT22;27322;49.488;8.480;2023-06-24T09:29:47;24.80;91.30
41630;DHT22;27322;49.488;8.480;2023-06-24T09:32:13;24.90;90.60
41630;DHT22;27322;49.488;8.480;2023-06-24T09:34:39;24.90;90.20
41630;DHT22;27322;49.488;8.480;2023-06-24T09:37:05;24.90;89.80
41630;DHT22;27322;49.488;8.480;2023-06-24T09:39:36;24.90;90.60
41630;DHT22;27322;49.488;8.480;2023-06-24T09:42:02;25.00;89.50
41630;DHT22;27322;49.488;8.480;2023-06-24T09:44:28;25.00;88.60
41630;DHT22;27322;49.488;8.480;2023-06-24T09:46:54;25.00;89.10
41630;DHT22;27322;49.488;8.480;2023-06-24T09:49:21;25.00;88.40
41630;DHT22;27322;49.488;8.480;2023-06-24T09:51:49;25.10;89.30
41630;DHT22;27322;49.488;8.480;2023-06-24T09:54:16;25.10;90.10
41630;DHT22;27322;49.488;8.480;2023-06-24T09:56:52;25.20;90.10
41630;DHT22;27322;49.488;8.480;2023-06-24T09:59:21;25.40;89.70
41630;DHT22;27322;49.488;8.480;2023-06-24T10:01:47;25.50;87.90
41630;DHT22;27322;49.488;8.480;2023-06-24T10:04:19;25.50;85.00
41630;DHT22;27322;49.488;8.480;2023-06-24T10:06:45;25.60;84.40
41630;DHT22;27322;49.488;8.480;2023-06-24T10:09:11;25.70;85.30
41630;DHT22;27322;49.488;8.480;2023-06-24T10:11:39;25.90;85.70
41630;DHT22;27322;49.488;8.480;2023-06-24T10:14:05;26.10;83.50
41630;DHT22;27322;49.488;8.480;2023-06-24T10:16:30;26.40;82.60
41630;DHT22;27322;49.488;8.480;2023-06-24T10:19:03;26.60;81.90
41630;DHT22;27322;49.488;8.480;2023-06-24T10:24:13;27.20;78.40
41630;DHT22;27322;49.488;8.480;2023-06-24T10:26:40;27.20;78.40
41630;DHT22;27322;49.488;8.480;2023-06-24T10:37:12;26.60;77.20
41630;DHT22;27322;49.488;8.480;2023-06-24T10:47:41;26.30;76.50
41630;DHT22;27322;49.488;8.480;2023-06-24T10:50:14;26.20;75.80
41630;DHT22;27322;49.488;8.480;2023-06-24T10:52:41;26.20;76.70
41630;DHT22;27322;49.488;8.480;2023-06-24T10:55:08;26.20;79.50
41630;DHT22;27322;49.488;8.480;2023-06-24T10:57:34;26.30;80.00
41630;DHT22;27322;49.488;8.480;2023-06-24T11:00:02;26.30;79.70
41630;DHT22;27322;49.488;8.480;2023-06-24T11:02:28;26.20;77.70
41630;DHT22;27322;49.488;8.480;2023-06-24T11:07:27;26.10;77.40
41630;DHT22;27322;49.488;8.480;2023-06-24T11:09:55;26.10;78.90
41630;DHT22;27322;49.488;8.480;2023-06-24T11:12:29;26.10;80.40
41630;DHT22;27322;49.488;8.480;2023-06-24T11:14:59;26.20;80.70
41630;DHT22;27322;49.488;8.480;2023-06-24T11:17:26;26.20;78.80
41630;DHT22;27322;49.488;8.480;2023-06-24T11:19:53;26.20;77.60
41630;DHT22;27322;49.488;8.480;2023-06-24T11:22:19;26.20;75.60
41630;DHT22;27322;49.488;8.480;2023-06-24T11:24:44;26.20;78.80
41630;DHT22;27322;49.488;8.480;2023-06-24T11:27:10;26.20;74.70
41630;DHT22;27322;49.488;8.480;2023-06-24T11:29:35;26.20;71.40
41630;DHT22;27322;49.488;8.480;2023-06-24T11:32:02;26.30;76.60
41630;DHT22;27322;49.488;8.480;2023-06-24T11:34:29;26.30;79.50
41630;DHT22;27322;49.488;8.480;2023-06-24T11:36:54;26.30;78.40
41630;DHT22;27322;49.488;8.480;2023-06-24T11:39:25;26.30;78.50
41630;DHT22;27322;49.488;8.480;2023-06-24T11:41:51;26.30;76.60
41630;DHT22;27322;49.488;8.480;2023-06-24T11:44:19;26.30;74.40
41630;DHT22;27322;49.488;8.480;2023-06-24T11:46:44;26.30;77.60
41630;DHT22;27322;49.488;8.480;2023-06-24T11:49:10;26.30;72.90
41630;DHT22;27322;49.488;8.480;2023-06-24T11:51:36;26.30;77.10
41630;DHT22;27322;49.488;8.480;2023-06-24T11:54:03;26.30;75.30
41630;DHT22;27322;49.488;8.480;2023-06-24T11:56:37;26.30;67.80
41630;DHT22;27322;49.488;8.480;2023-06-24T11:59:07;26.20;69.10
41630;DHT22;27322;49.488;8.480;2023-06-24T12:01:33;26.20;68.70
41630;DHT22;27322;49.488;8.480;2023-06-24T12:04:09;26.20;68.20
41630;DHT22;27322;49.488;8.480;2023-06-24T12:06:35;26.20;72.60
41630;DHT22;27322;49.488;8.480;2023-06-24T12:09:01;26.20;73.30
41630;DHT22;27322;49.488;8.480;2023-06-24T12:11:26;26.20;73.30
41630;DHT22;27322;49.488;8.480;2023-06-24T12:13:52;26.30;68.60
41630;DHT22;27322;49.488;8.480;2023-06-24T12:16:18;26.30;69.70
41630;DHT22;27322;49.488;8.480;2023-06-24T12:18:44;26.30;70.30
41630;DHT22;27322;49.488;8.480;2023-06-24T12:21:10;26.40;70.50
41630;DHT22;27322;49.488;8.480;2023-06-24T12:23:36;26.50;70.10
41630;DHT22;27322;49.488;8.480;2023-06-24T12:26:01;26.50;69.20
41630;DHT22;27322;49.488;8.480;2023-06-24T12:28:27;26.60;69.00
41630;DHT22;27322;49.488;8.480;2023-06-24T12:30:53;26.60;70.50
41630;DHT22;27322;49.488;8.480;2023-06-24T12:33:18;26.60;70.50
41630;DHT22;27322;49.488;8.480;2023-06-24T12:35:46;26.60;73.00
41630;DHT22;27322;49.488;8.480;2023-06-24T12:38:12;26.60;71.00
41630;DHT22;27322;49.488;8.480;2023-06-24T12:40:37;26.60;68.50
41630;DHT22;27322;49.488;8.480;2023-06-24T12:43:03;26.60;68.20
41630;DHT22;27322;49.488;8.480;2023-06-24T12:45:29;26.60;68.70
41630;DHT22;27322;49.488;8.480;2023-06-24T12:47:55;26.50;67.60
41630;DHT22;27322;49.488;8.480;2023-06-24T12:50:21;26.50;70.10
41630;DHT22;27322;49.488;8.480;2023-06-24T12:52:46;26.50;70.50
41630;DHT22;27322;49.488;8.480;2023-06-24T12:55:12;26.40;69.90
41630;DHT22;27322;49.488;8.480;2023-06-24T12:57:37;26.40;71.00
41630;DHT22;27322;49.488;8.480;2023-06-24T13:00:04;26.40;72.00
41630;DHT22;27322;49.488;8.480;2023-06-24T13:02:30;26.40;72.30
41630;DHT22;27322;49.488;8.480;2023-06-24T13:04:56;26.30;73.50
41630;DHT22;27322;49.488;8.480;2023-06-24T13:07:21;26.30;73.70
41630;DHT22;27322;49.488;8.480;2023-06-24T13:09:47;26.20;71.00
41630;DHT22;27322;49.488;8.480;2023-06-24T13:12:13;26.20;71.50
41630;DHT22;27322;49.488;8.480;2023-06-24T13:14:38;26.20;70.90
41630;DHT22;27322;49.488;8.480;2023-06-24T13:17:04;26.10;70.40
41630;DHT22;27322;49.488;8.480;2023-06-24T13:19:30;26.20;74.10
41630;DHT22;27322;49.488;8.480;2023-06-24T13:21:56;26.20;72.80
41630;DHT22;27322;49.488;8.480;2023-06-24T13:24:21;26.20;73.80
41630;DHT22;27322;49.488;8.480;2023-06-24T13:26:47;26.10;73.80
41630;DHT22;27322;49.488;8.480;2023-06-24T13:29:12;26.10;74.40
41630;DHT22;27322;49.488;8.480;2023-06-24T13:31:38;26.20;77.20
41630;DHT22;27322;49.488;8.480;2023-06-24T13:34:04;26.20;76.80
41630;DHT22;27322;49.488;8.480;2023-06-24T13:36:33;26.20;68.90
41630;DHT22;27322;49.488;8.480;2023-06-24T13:39:01;26.30;70.30
41630;DHT22;27322;49.488;8.480;2023-06-24T13:41:27;26.30;69.40
41630;DHT22;27322;49.488;8.480;2023-06-24T13:43:55;26.40;72.30
41630;DHT22;27322;49.488;8.480;2023-06-24T13:46:21;26.50;68.60
41630;DHT22;27322;49.488;8.480;2023-06-24T13:48:48;26.50;68.60
41630;DHT22;27322;49.488;8.480;2023-06-24T13:51:15;26.60;68.40
41630;DHT22;27322;49.488;8.480;2023-06-24T13:53:41;26.70;71.80
41630;DHT22;27322;49.488;8.480;2023-06-24T13:56:06;26.70;69.60
41630;DHT22;27322;49.488;8.480;2023-06-24T13:58:32;26.80;72.00
41630;DHT22;27322;49.488;8.480;2023-06-24T14:00:57;26.70;69.50
41630;DHT22;27322;49.488;8.480;2023-06-24T14:03:23;26.70;69.60
41630;DHT22;27322;49.488;8.480;2023-06-24T14:05:48;26.70;69.90
41630;DHT22;27322;49.488;8.480;2023-06-24T14:08:14;26.80;68.80
41630;DHT22;27322;49.488;8.480;2023-06-24T14:10:40;26.70;69.00
41630;DHT22;27322;49.488;8.480;2023-06-24T14:13:05;26.70;68.80
41630;DHT22;27322;49.488;8.480;2023-06-24T14:15:31;26.70;67.80
41630;DHT22;27322;49.488;8.480;2023-06-24T14:17:57;26.70;68.70
41630;DHT22;27322;49.488;8.480;2023-06-24T14:20:23;26.70;70.00
41630;DHT22;27322;49.488;8.480;2023-06-24T14:22:50;26.70;69.20
41630;DHT22;27322;49.488;8.480;2023-06-24T14:25:16;26.70;70.70
41630;DHT22;27322;49.488;8.480;2023-06-24T14:27:41;26.70;70.60
41630;DHT22;27322;49.488;8.480;2023-06-24T14:30:07;26.70;68.90
41630;DHT22;27322;49.488;8.480;2023-06-24T14:32:37;26.70;69.40
41630;DHT22;27322;49.488;8.480;2023-06-24T14:35:03;26.70;72.20
41630;DHT22;27322;49.488;8.480;2023-06-24T14:37:28;26.70;67.70
41630;DHT22;27322;49.488;8.480;2023-06-24T14:39:54;26.70;68.80
41630;DHT22;27322;49.488;8.480;2023-06-24T14:42:20;26.70;70.90
41630;DHT22;27322;49.488;8.480;2023-06-24T14:44:45;26.70;70.60
41630;DHT22;27322;49.488;8.480;2023-06-24T14:47:11;26.70;72.40
41630;DHT22;27322;49.488;8.480;2023-06-24T14:49:37;26.60;69.20
41630;DHT22;27322;49.488;8.480;2023-06-24T14:52:02;26.70;69.70
41630;DHT22;27322;49.488;8.480;2023-06-24T14:54:28;26.70;70.80
41630;DHT22;27322;49.488;8.480;2023-06-24T14:56:53;26.70;72.60
41630;DHT22;27322;49.488;8.480;2023-06-24T14:59:19;26.70;71.50
41630;DHT22;27322;49.488;8.480;2023-06-24T15:01:44;26.70;71.40
41630;DHT22;27322;49.488;8.480;2023-06-24T15:04:10;26.70;69.50
41630;DHT22;27322;49.488;8.480;2023-06-24T15:06:36;26.70;71.20
41630;DHT22;27322;49.488;8.480;2023-06-24T15:09:01;26.70;72.60
41630;DHT22;27322;49.488;8.480;2023-06-24T15:11:27;26.70;71.80
41630;DHT22;27322;49.488;8.480;2023-06-24T15:13:52;26.60;70.40
41630;DHT22;27322;49.488;8.480;2023-06-24T15:16:18;26.70;68.30
41630;DHT22;27322;49.488;8.480;2023-06-24T15:18:47;26.70;68.50
41630;DHT22;27322;49.488;8.480;2023-06-24T15:21:14;26.80;67.40
41630;DHT22;27322;49.488;8.480;2023-06-24T15:23:39;26.80;69.60
41630;DHT22;27322;49.488;8.480;2023-06-24T15:26:05;26.80;69.80
41630;DHT22;27322;49.488;8.480;2023-06-24T15:28:31;26.80;68.50
41630;DHT22;27322;49.488;8.480;2023-06-24T15:30:59;26.70;69.10
41630;DHT22;27322;49.488;8.480;2023-06-24T15:33:24;26.70;69.80
41630;DHT22;27322;49.488;8.480;2023-06-24T15:35:50;26.60;69.90
41630;DHT22;27322;49.488;8.480;2023-06-24T15:38:15;26.60;69.90
41630;DHT22;27322;49.488;8.480;2023-06-24T15:40:41;26.60;70.10
41630;DHT22;27322;49.488;8.480;2023-06-24T15:43:11;26.60;70.00
41630;DHT22;27322;49.488;8.480;2023-06-24T15:45:38;26.60;71.10
41630;DHT22;27322;49.488;8.480;2023-06-24T15:48:04;26.60;72.20
41630;DHT22;27322;49.488;8.480;2023-06-24T15:50:30;26.50;70.90
41630;DHT22;27322;49.488;8.480;2023-06-24T15:52:55;26.50;69.00
41630;DHT22;27322;49.488;8.480;2023-06-24T15:55:21;26.50;68.40
41630;DHT22;27322;49.488;8.480;2023-06-24T15:57:46;26.50;68.00
41630;DHT22;27322;49.488;8.480;2023-06-24T16:00:12;26.50;67.80